Time;durP1;ratioP1;P1;durP2;ratioP2;P2;SDS_P1;SDS_P2;PMS_P1;PMS_P2;Temp;Humidity;BMP_temperature;BMP_pressure;BME280_temperature;BME280_humidity;BME280_pressure;Samples;Min_cycle;Max_cycle;Signal;HPM_P1;HPM_P2
2022/04/09 00:03:57;;;;;;;;;;;;;;;-139.34;100.00;63888.56;10544166;28;19920;-64
2022/04/09 00:09:19;;;;;;;;;;;;;;;-139.34;100.00;63888.56;10514932;28;19921;-64
2022/04/09 00:14:40;;;;;;;;;;;;;;;-139.34;100.00;63888.56;10530782;28;19923;-64
2022/04/09 00:20:02;;;;;;;;;;;;;;;-139.34;100.00;63888.56;10569021;28;19920;-64
2022/04/09 00:25:24;;;;;;;;;;;;;;;-139.34;100.00;63888.56;10547797;28;19931;-64
2022/04/09 00:30:45;;;;;;;;;;;;;;;-139.34;100.00;63888.56;10536950;28;19924;-64
2022/04/09 00:36:07;;;;;;;;;;;;;;;-139.34;100.00;63888.56;10539108;28;20539;-64
2022/04/09 00:41:29;;;;;;;;;;;;;;;-139.34;100.00;63888.56;10513762;28;19932;-64
2022/04/09 00:46:50;;;;;;;;;;;;;;;-139.34;100.00;63888.56;10517800;28;19931;-64
2022/04/09 00:52:14;;;;;;;;;;;;;;;-139.34;100.00;63888.56;10533200;28;19944;-64
2022/04/09 00:57:38;;;;;;;;;;;;;;;-139.34;100.00;63888.56;10514121;28;19928;-64
2022/04/09 01:02:59;;;;;;;;;;;;;;;-139.34;100.00;63888.56;10518201;28;20356;-64
2022/04/09 01:08:21;;;;;;;;;;;;;;;-139.34;100.00;63888.56;10557795;28;19920;-64
2022/04/09 01:13:44;;;;;;;;;;;;;;;-139.34;100.00;63888.56;10545685;28;19920;-64
2022/04/09 01:19:05;;;;;;;;;;;;;;;-139.34;100.00;63888.56;10507964;28;19927;-64
2022/04/09 01:24:27;;;;;;;;;;;;;;;-139.34;100.00;63888.56;10513402;28;19927;-64
2022/04/09 01:29:48;;;;;;;;;;;;;;;-139.34;100.00;63888.56;10496181;28;19920;-64
2022/04/09 01:35:10;;;;;;;;;;;;;;;-139.34;100.00;63888.56;10531064;28;19920;-64
2022/04/09 01:40:32;;;;;;;;;;;;;;;-139.34;100.00;63888.56;10535936;28;20542;-64
2022/04/09 01:45:53;;;;;;;;;;;;;;;-139.34;100.00;63888.56;10554743;28;20479;-64
2022/04/09 01:51:15;;;;;;;;;;;;;;;-139.34;100.00;63888.56;10518792;28;20395;-65
2022/04/09 01:56:36;;;;;;;;;;;;;;;-139.34;100.00;63888.56;10546361;28;19919;-64
2022/04/09 02:01:58;;;;;;;;;;;;;;;-139.34;100.00;63888.56;10505697;28;19920;-64
2022/04/09 02:07:19;;;;;;;;;;;;;;;-139.34;100.00;63888.56;10522616;28;20361;-64
2022/04/09 02:12:41;;;;;;;;;;;;;;;-139.34;100.00;63888.56;10574164;28;20398;-64
2022/04/09 02:18:03;;;;;;;;;;;;;;;-139.34;100.00;63888.56;10563728;28;19920;-64
2022/04/09 02:23:25;;;;;;;;;;;;;;;-139.34;100.00;63888.56;10568198;28;19920;-64
2022/04/09 02:28:48;;;;;;;;;;;;;;;-139.34;100.00;63888.56;10570552;28;19930;-65
2022/04/09 02:34:09;;;;;;;;;;;;;;;-139.34;100.00;63888.56;10557188;28;20268;-64
2022/04/09 02:39:31;;;;;;;;;;;;;;;-139.34;100.00;63888.56;10494465;28;19924;-64
2022/04/09 02:44:53;;;;;;;;;;;;;;;-139.34;100.00;63888.56;10544873;28;19927;-64
2022/04/09 02:50:14;;;;;;;;;;;;;;;-139.34;100.00;63888.56;10505918;28;19920;-64
2022/04/09 02:55:38;;;;;;;;;;;;;;;-139.34;100.00;63888.56;10564104;27;19958;-64
2022/04/09 03:01:00;;;;;;;;;;;;;;;-139.34;100.00;63888.56;10546584;28;20353;-65
2022/04/09 03:06:21;;;;;;;;;;;;;;;-139.34;100.00;63888.56;10538856;28;19934;-64
2022/04/09 03:11:43;;;;;;;;;;;;;;;-139.34;100.00;63888.56;10513070;28;19927;-64
2022/04/09 03:17:04;;;;;;;;;;;;;;;-139.34;100.00;63888.56;10559351;28;19920;-64
2022/04/09 03:22:27;;;;;;;;;;;;;;;-139.34;100.00;63888.56;10568532;28;20029;-64
2022/04/09 03:27:49;;;;;;;;;;;;;;;-139.34;100.00;63888.56;10566611;28;19926;-64
2022/04/09 03:33:11;;;;;;;;;;;;;;;-139.34;100.00;63888.56;10558221;28;19923;-64
2022/04/09 03:38:33;;;;;;;;;;;;;;;-139.34;100.00;63888.56;10570254;28;19927;-64
2022/04/09 03:43:54;;;;;;;;;;;;;;;-139.34;100.00;63888.56;10549747;28;19927;-64
2022/04/09 03:49:18;;;;;;;;;;;;;;;-139.34;100.00;63888.56;10552741;28;19926;-64
2022/04/09 03:54:40;;;;;;;;;;;;;;;-139.34;100.00;63888.56;10557372;28;19919;-64
2022/04/09 04:00:03;;;;;;;;;;;;;;;-139.34;100.00;63888.56;10573903;28;19924;-64
2022/04/09 04:05:24;;;;;;;;;;;;;;;-139.34;100.00;63888.56;10539572;28;19924;-63
2022/04/09 04:10:46;;;;;;;;;;;;;;;-139.34;100.00;63888.56;10491452;28;19920;-64
2022/04/09 04:16:09;;;;;;;;;;;;;;;-139.34;100.00;63888.56;10540505;28;19919;-64
2022/04/09 04:21:31;;;;;;;;;;;;;;;-139.34;100.00;63888.56;10557422;28;20299;-64
2022/04/09 04:26:53;;;;;;;;;;;;;;;-139.34;100.00;63888.56;10561951;28;19927;-64
2022/04/09 04:32:14;;;;;;;;;;;;;;;-139.34;100.00;63888.56;10533049;28;19927;-64
2022/04/09 04:37:39;;;;;;;;;;;;;;;-139.34;100.00;63888.56;10535393;28;19920;-64
2022/04/09 04:43:01;;;;;;;;;;;;;;;-139.34;100.00;63888.56;10530778;28;19924;-64
2022/04/09 04:48:23;;;;;;;;;;;;;;;-139.34;100.00;63888.56;10559418;28;19968;-64
2022/04/09 04:53:44;;;;;;;;;;;;;;;-139.34;100.00;63888.56;10551471;28;20380;-64
2022/04/09 04:59:07;;;;;;;;;;;;;;;-139.34;100.00;63888.56;10567687;28;19920;-64
2022/04/09 05:04:29;;;;;;;;;;;;;;;-139.34;100.00;63888.56;10542194;28;20619;-64
2022/04/09 05:09:51;;;;;;;;;;;;;;;-139.34;100.00;63888.56;10535115;28;19924;-64
2022/04/09 05:15:13;;;;;;;;;;;;;;;-139.34;100.00;63888.56;10532022;28;19920;-64
2022/04/09 05:20:35;;;;;;;;;;;;;;;-139.34;100.00;63888.56;10531643;28;19924;-64
2022/04/09 05:25:57;;;;;;;;;;;;;;;-139.34;100.00;63888.56;10532110;28;19944;-63
2022/04/09 05:31:27;;;;;;;;;;;;;;;-139.34;100.00;63888.56;10567225;28;20288;-64
2022/04/09 05:36:49;;;;;;;;;;;;;;;-139.34;100.00;63888.56;10579374;27;20520;-64
2022/04/09 05:42:10;;;;;;;;;;;;;;;-139.34;100.00;63888.56;10552785;28;19925;-64
2022/04/09 05:47:32;;;;;;;;;;;;;;;-139.34;100.00;63888.56;10530391;28;19924;-63
2022/04/09 05:52:54;;;;;;;;;;;;;;;-139.34;100.00;63888.56;10508270;28;19920;-63
2022/04/09 05:58:15;;;;;;;;;;;;;;;-139.34;100.00;63888.56;10572055;28;20287;-64
2022/04/09 06:03:38;;;;;;;;;;;;;;;-139.34;100.00;63888.56;10556941;28;19919;-64
2022/04/09 06:09:00;;;;;;;;;;;;;;;-139.34;100.00;63888.56;10508691;28;19924;-64
2022/04/09 06:14:21;;;;;;;;;;;;;;;-139.34;100.00;63888.56;10518476;28;19924;-63
2022/04/09 06:19:43;;;;;;;;;;;;;;;-139.34;100.00;63888.56;10534392;28;19921;-63
2022/04/09 06:25:05;;;;;;;;;;;;;;;-139.34;100.00;63888.56;10516768;28;19919;-64
2022/04/09 06:30:27;;;;;;;;;;;;;;;-139.34;100.00;63888.56;10570389;28;19934;-63
2022/04/09 06:35:49;;;;;;;;;;;;;;;-139.34;100.00;63888.56;10571275;28;19919;-63
2022/04/09 06:41:10;;;;;;;;;;;;;;;-139.34;100.00;63888.56;10568865;28;19920;-64
2022/04/09 06:46:32;;;;;;;;;;;;;;;-139.34;100.00;63888.56;10561530;28;19930;-63
2022/04/09 06:51:54;;;;;;;;;;;;;;;-139.34;100.00;63888.56;10531939;28;19932;-64
2022/04/09 06:57:15;;;;;;;;;;;;;;;-139.34;100.00;63888.56;10553761;28;19927;-64
2022/04/09 07:02:37;;;;;;;;;;;;;;;-139.34;100.00;63888.56;10559053;28;19928;-63
2022/04/09 07:08:01;;;;;;;;;;;;;;;-139.34;100.00;63888.56;10553924;28;19930;-64
2022/04/09 07:13:22;;;;;;;;;;;;;;;-139.34;100.00;63888.56;10543380;28;20015;-64
2022/04/09 07:18:44;;;;;;;;;;;;;;;-139.34;100.00;63888.56;10533139;28;19970;-64
2022/04/09 07:24:05;;;;;;;;;;;;;;;-139.34;100.00;63888.56;10530381;28;19919;-66
2022/04/09 07:29:27;;;;;;;;;;;;;;;-139.34;100.00;63888.56;10517804;28;20451;-63
2022/04/09 07:34:48;;;;;;;;;;;;;;;-139.34;100.00;63888.56;10542046;28;19920;-64
2022/04/09 07:40:11;;;;;;;;;;;;;;;-139.34;100.00;63888.56;10534875;28;20078;-64
2022/04/09 07:45:33;;;;;;;;;;;;;;;-139.34;100.00;63888.56;10527572;28;19928;-64
2022/04/09 07:50:54;;;;;;;;;;;;;;;-139.34;100.00;63888.56;10522261;28;20426;-63
2022/04/09 07:56:16;;;;;;;;;;;;;;;-139.34;100.00;63888.56;10531154;28;19920;-64
2022/04/09 08:01:37;;;;;;;;;;;;;;;-139.34;100.00;63888.56;10525437;28;19934;-63
2022/04/09 08:06:59;;;;;;;;;;;;;;;-139.34;100.00;63888.56;10520168;28;19935;-63
2022/04/09 08:12:20;;;;;;;;;;;;;;;-139.34;100.00;63888.56;10529942;28;19920;-63
2022/04/09 08:17:42;;;;;;;;;;;;;;;-139.34;100.00;63888.56;10553828;28;19923;-64
2022/04/09 08:23:04;;;;;;;;;;;;;;;-139.34;100.00;63888.56;10534461;28;20466;-64
2022/04/09 08:28:30;;;;;;;;;;;;;;;-139.34;100.00;63888.56;10522098;28;20435;-63
2022/04/09 08:33:53;;;;;;;;;;;;;;;-139.34;100.00;63888.56;10531158;28;19943;-63
2022/04/09 08:39:14;;;;;;;;;;;;;;;-139.34;100.00;63888.56;10542182;28;20030;-64
2022/04/09 08:44:36;;;;;;;;;;;;;;;-139.34;100.00;63888.56;10550469;28;19955;-64
2022/04/09 08:49:57;;;;;;;;;;;;;;;-139.34;100.00;63888.56;10546028;28;19926;-63
2022/04/09 08:55:19;;;;;;;;;;;;;;;-139.34;100.00;63888.56;10538731;28;19927;-64
2022/04/09 09:00:42;;;;;;;;;;;;;;;-139.34;100.00;63888.56;10527457;28;19928;-66
2022/04/09 09:06:45;;;;;;;;;;;;;;;-139.34;100.00;63888.56;10548425;28;19931;-65
2022/04/09 09:12:07;;;;;;;;;;;;;;;-139.34;100.00;63888.56;10388353;28;19921;-64
2022/04/09 09:17:29;;;;;;;;;;;;;;;-139.34;100.00;63888.56;10511729;28;19920;-64
2022/04/09 09:22:52;;;;;;;;;;;;;;;-139.34;100.00;63888.56;10542178;28;19920;-63
2022/04/09 09:28:20;;;;;;;;;;;;;;;-139.34;100.00;63888.56;10538665;28;19957;-63
2022/04/09 09:33:46;;;;;;;;;;;;;;;-139.34;100.00;63888.56;10541366;28;19935;-63
2022/04/09 09:39:28;;;;;;;;;;;;;;;-139.34;100.00;63888.56;10533260;28;19924;-63
2022/04/09 09:44:55;;;;;;;;;;;;;;;-139.34;100.00;63888.56;10533279;28;19920;-62
2022/04/09 09:50:16;;;;;;;;;;;;;;;-139.34;100.00;63888.56;10532894;28;20400;-61
2022/04/09 09:55:45;;;;;;;;;;;;;;;-139.34;100.00;63888.56;10532787;28;20315;-62
2022/04/09 10:01:07;;;;;;;;;;;;;;;-139.34;100.00;63888.56;10527136;28;19920;-63
2022/04/09 10:06:29;;;;;;;;;;;;;;;-139.34;100.00;63888.56;10535818;28;19920;-63
2022/04/09 10:11:52;;;;;;;;;;;;;;;-139.34;100.00;63888.56;10513728;28;20368;-63
2022/04/09 10:17:16;;;;;;;;;;;;;;;-139.34;100.00;63888.56;10548761;28;20123;-63
2022/04/09 10:22:41;;;;;;;;;;;;;;;-139.34;100.00;63888.56;10512682;28;19924;-63
2022/04/09 10:28:03;;;;;;;;;;;;;;;-139.34;100.00;63888.56;10562041;28;19928;-68
2022/04/09 10:33:27;;;;;;;;;;;;;;;-139.34;100.00;63888.56;10550059;28;19926;-63
2022/04/09 10:39:08;;;;;;;;;;;;;;;-139.34;100.00;63888.56;10573931;28;19923;-63
2022/04/09 10:44:34;;;;;;;;;;;;;;;-139.34;100.00;63888.56;10545093;28;19927;-65
2022/04/09 10:50:02;;;;;;;;;;;;;;;-139.34;100.00;63888.56;10542248;28;19923;-67
2022/04/09 10:55:24;;;;;;;;;;;;;;;-139.34;100.00;63888.56;10543897;28;19959;-66
2022/04/09 11:00:46;;;;;;;;;;;;;;;-139.34;100.00;63888.56;10576301;28;19924;-66
2022/04/09 11:06:26;;;;;;;;;;;;;;;-139.34;100.00;63888.56;10541110;28;20400;-66
2022/04/09 11:11:59;;;;;;;;;;;;;;;-139.34;100.00;63888.56;10495750;28;19927;-66
2022/04/09 11:17:24;;;;;;;;;;;;;;;-139.34;100.00;63888.56;10528771;28;19920;-66
2022/04/09 11:22:47;;;;;;;;;;;;;;;-139.34;100.00;63888.56;10538380;28;19930;-66
2022/04/09 11:28:17;;;;;;;;;;;;;;;-139.34;100.00;63888.56;10553828;28;19920;-65
2022/04/09 11:33:54;;;;;;;;;;;;;;;-139.34;100.00;63888.56;10544123;28;20277;-66
2022/04/09 11:39:16;;;;;;;;;;;;;;;-139.34;100.00;63888.56;10543205;28;19920;-66
2022/04/09 11:44:40;;;;;;;;;;;;;;;-139.34;100.00;63888.56;10521212;28;19919;-66
2022/04/09 11:50:02;;;;;;;;;;;;;;;-139.34;100.00;63888.56;10513996;28;19923;-66
2022/04/09 11:55:27;;;;;;;;;;;;;;;-139.34;100.00;63888.56;10540102;28;19973;-66
2022/04/09 12:00:49;;;;;;;;;;;;;;;-139.34;100.00;63888.56;10550770;28;19945;-66
2022/04/09 12:06:10;;;;;;;;;;;;;;;-139.34;100.00;63888.56;10541341;28;19934;-66
2022/04/09 12:11:32;;;;;;;;;;;;;;;-139.34;100.00;63888.56;10509311;28;19924;-66
2022/04/09 12:16:54;;;;;;;;;;;;;;;-139.34;100.00;63888.56;10524843;28;20312;-66
2022/04/09 12:22:20;;;;;;;;;;;;;;;-139.34;100.00;63888.56;10522866;28;19924;-66
2022/04/09 12:27:45;;;;;;;;;;;;;;;-139.34;100.00;63888.56;10521391;28;20494;-66
2022/04/09 12:33:10;;;;;;;;;;;;;;;-139.34;100.00;63888.56;10514862;28;19927;-66
2022/04/09 12:38:34;;;;;;;;;;;;;;;-139.34;100.00;63888.56;10520923;28;19928;-66
2022/04/09 12:43:56;;;;;;;;;;;;;;;-139.34;100.00;63888.56;10521312;28;19924;-66
2022/04/09 12:49:17;;;;;;;;;;;;;;;-139.34;100.00;63888.56;10511050;28;19924;-67
2022/04/09 12:54:39;;;;;;;;;;;;;;;-139.34;100.00;63888.56;10528008;28;19920;-66
2022/04/09 13:00:01;;;;;;;;;;;;;;;-139.34;100.00;63888.56;10573523;28;19939;-63
2022/04/09 13:05:22;;;;;;;;;;;;;;;-139.34;100.00;63888.56;10535218;28;19932;-64
2022/04/09 13:10:44;;;;;;;;;;;;;;;-139.34;100.00;63888.56;10501871;28;19923;-64
2022/04/09 13:16:05;;;;;;;;;;;;;;;-139.34;100.00;63888.56;10523046;28;20028;-64
2022/04/09 13:21:27;;;;;;;;;;;;;;;-139.34;100.00;63888.56;10514743;28;20436;-65
2022/04/09 13:26:48;;;;;;;;;;;;;;;-139.34;100.00;63888.56;10511346;28;19920;-65
2022/04/09 13:32:10;;;;;;;;;;;;;;;-139.34;100.00;63888.56;10518461;28;19920;-65
2022/04/09 13:37:32;;;;;;;;;;;;;;;-139.34;100.00;63888.56;10522990;28;19920;-65
2022/04/09 13:42:55;;;;;;;;;;;;;;;-139.34;100.00;63888.56;10521013;28;20368;-64
2022/04/09 13:48:17;;;;;;;;;;;;;;;-139.34;100.00;63888.56;10515899;28;20277;-65
2022/04/09 13:53:39;;;;;;;;;;;;;;;-139.34;100.00;63888.56;10526410;28;19924;-64
2022/04/09 13:59:00;;;;;;;;;;;;;;;-139.34;100.00;63888.56;10528283;28;19927;-64
2022/04/09 14:04:22;;;;;;;;;;;;;;;-139.34;100.00;63888.56;10530202;28;19931;-64
2022/04/09 14:09:43;;;;;;;;;;;;;;;-139.34;100.00;63888.56;10534572;28;19935;-64
2022/04/09 14:15:05;;;;;;;;;;;;;;;-139.34;100.00;63888.56;10531514;28;19950;-64
2022/04/09 14:20:27;;;;;;;;;;;;;;;-139.34;100.00;63888.56;10517198;28;19920;-63
2022/04/09 14:25:49;;;;;;;;;;;;;;;-139.34;100.00;63888.56;10541000;28;19924;-65
2022/04/09 14:31:11;;;;;;;;;;;;;;;-139.34;100.00;63888.56;10554726;28;19965;-64
2022/04/09 14:36:33;;;;;;;;;;;;;;;-139.34;100.00;63888.56;10555332;27;20519;-66
2022/04/09 14:41:55;;;;;;;;;;;;;;;-139.34;100.00;63888.56;10549133;28;20376;-65
2022/04/09 14:47:16;;;;;;;;;;;;;;;-139.34;100.00;63888.56;10548961;28;19927;-65
2022/04/09 14:52:40;;;;;;;;;;;;;;;-139.34;100.00;63888.56;10555661;28;19934;-65
2022/04/09 14:58:01;;;;;;;;;;;;;;;-139.34;100.00;63888.56;10555497;28;19924;-63
2022/04/09 15:03:23;;;;;;;;;;;;;;;-139.34;100.00;63888.56;10553422;28;19990;-63
2022/04/09 15:08:45;;;;;;;;;;;;;;;-139.34;100.00;63888.56;10542574;28;19923;-64
2022/04/09 15:14:07;;;;;;;;;;;;;;;-139.34;100.00;63888.56;10555602;27;19924;-63
2022/04/09 15:19:29;;;;;;;;;;;;;;;-139.34;100.00;63888.56;10552526;28;20399;-64
2022/04/09 15:24:50;;;;;;;;;;;;;;;-139.34;100.00;63888.56;10552084;28;20375;-64
2022/04/09 15:30:12;;;;;;;;;;;;;;;-139.34;100.00;63888.56;10564153;28;19920;-64
2022/04/09 15:35:33;;;;;;;;;;;;;;;-139.34;100.00;63888.56;10558323;28;20336;-64
2022/04/09 15:40:58;;;;;;;;;;;;;;;-139.34;100.00;63888.56;10551168;28;19939;-64
2022/04/09 15:46:20;;;;;;;;;;;;;;;-139.34;100.00;63888.56;10568404;28;19919;-64
2022/04/09 15:51:41;;;;;;;;;;;;;;;-139.34;100.00;63888.56;10552100;28;19927;-64
2022/04/09 15:57:03;;;;;;;;;;;;;;;-139.34;100.00;63888.56;10556397;28;19920;-64
2022/04/09 16:02:26;;;;;;;;;;;;;;;-139.34;100.00;63888.56;10554440;28;20291;-64
2022/04/09 16:07:47;;;;;;;;;;;;;;;-139.34;100.00;63888.56;10553357;28;19957;-64
2022/04/09 16:13:09;;;;;;;;;;;;;;;-139.34;100.00;63888.56;10553037;28;19923;-64
2022/04/09 16:18:30;;;;;;;;;;;;;;;-139.34;100.00;63888.56;10557338;28;19932;-64
2022/04/09 16:23:52;;;;;;;;;;;;;;;-139.34;100.00;63888.56;10553725;28;19926;-65
2022/04/09 16:29:13;;;;;;;;;;;;;;;-139.34;100.00;63888.56;10556188;28;19919;-63
2022/04/09 16:34:35;;;;;;;;;;;;;;;-139.34;100.00;63888.56;10545505;28;20356;-65
2022/04/09 16:39:57;;;;;;;;;;;;;;;-139.34;100.00;63888.56;10556768;28;19923;-62
2022/04/09 16:45:18;;;;;;;;;;;;;;;-139.34;100.00;63888.56;10556231;28;19928;-64
2022/04/09 16:50:40;;;;;;;;;;;;;;;-139.34;100.00;63888.56;10549700;28;19923;-66
2022/04/09 16:56:01;;;;;;;;;;;;;;;-139.34;100.00;63888.56;10529616;28;19931;-66
2022/04/09 17:01:22;;;;;;;;;;;;;;;-139.34;100.00;63888.56;10514390;28;19920;-67
2022/04/09 17:06:44;;;;;;;;;;;;;;;-139.34;100.00;63888.56;10539492;28;19934;-67
2022/04/09 17:12:06;;;;;;;;;;;;;;;-139.34;100.00;63888.56;10548790;28;19930;-67
2022/04/09 17:17:27;;;;;;;;;;;;;;;-139.34;100.00;63888.56;10553518;28;19927;-67
2022/04/09 17:22:49;;;;;;;;;;;;;;;-139.34;100.00;63888.56;10550011;28;19927;-63
2022/04/09 17:28:13;;;;;;;;;;;;;;;-139.34;100.00;63888.56;10572981;27;19946;-63
2022/04/09 17:33:34;;;;;;;;;;;;;;;-139.34;100.00;63888.56;10552134;28;19926;-63
2022/04/09 17:38:56;;;;;;;;;;;;;;;-139.34;100.00;63888.56;10553883;27;19924;-63
2022/04/09 17:44:17;;;;;;;;;;;;;;;-139.34;100.00;63888.56;10552804;28;19930;-63
2022/04/09 17:49:39;;;;;;;;;;;;;;;-139.34;100.00;63888.56;10534808;28;20376;-63
2022/04/09 17:55:00;;;;;;;;;;;;;;;-139.34;100.00;63888.56;10553553;28;19926;-64
2022/04/09 18:00:22;;;;;;;;;;;;;;;-139.34;100.00;63888.56;10556561;28;19919;-63
2022/04/09 18:05:43;;;;;;;;;;;;;;;-139.34;100.00;63888.56;10549381;28;20430;-63
2022/04/09 18:11:05;;;;;;;;;;;;;;;-139.34;100.00;63888.56;10552538;28;19924;-63
2022/04/09 18:16:27;;;;;;;;;;;;;;;-139.34;100.00;63888.56;10549813;27;19920;-64
2022/04/09 18:21:49;;;;;;;;;;;;;;;-139.34;100.00;63888.56;10542372;28;19923;-64
2022/04/09 18:27:11;;;;;;;;;;;;;;;-139.34;100.00;63888.56;10556037;28;19919;-63
2022/04/09 18:32:34;;;;;;;;;;;;;;;-139.34;100.00;63888.56;10546180;28;19920;-64
2022/04/09 18:37:55;;;;;;;;;;;;;;;-139.34;100.00;63888.56;10561238;27;19924;-62
2022/04/09 18:43:17;;;;;;;;;;;;;;;-139.34;100.00;63888.56;10560662;27;19927;-63
2022/04/09 18:48:38;;;;;;;;;;;;;;;-139.34;100.00;63888.56;10563820;28;19926;-64
2022/04/09 18:54:00;;;;;;;;;;;;;;;-139.34;100.00;63888.56;10550538;28;19930;-64
2022/04/09 18:59:27;;;;;;;;;;;;;;;-139.34;100.00;63888.56;10562833;28;19931;-63
2022/04/09 19:04:48;;;;;;;;;;;;;;;-139.34;100.00;63888.56;10543508;28;20253;-63
2022/04/09 19:10:14;;;;;;;;;;;;;;;-139.34;100.00;63888.56;10559090;28;19926;-63
2022/04/09 19:15:36;;;;;;;;;;;;;;;-139.34;100.00;63888.56;10557671;28;19959;-63
2022/04/09 19:20:58;;;;;;;;;;;;;;;-139.34;100.00;63888.56;10580047;27;19959;-63
2022/04/09 19:26:20;;;;;;;;;;;;;;;-139.34;100.00;63888.56;10556819;28;19920;-63
2022/04/09 19:31:41;;;;;;;;;;;;;;;-139.34;100.00;63888.56;10551153;28;19927;-63
2022/04/09 19:37:03;;;;;;;;;;;;;;;-139.34;100.00;63888.56;10556708;28;19946;-63
2022/04/09 19:42:26;;;;;;;;;;;;;;;-139.34;100.00;63888.56;10536301;28;19924;-63
2022/04/09 19:47:50;;;;;;;;;;;;;;;-139.34;100.00;63888.56;10558197;28;19926;-63
2022/04/09 19:53:13;;;;;;;;;;;;;;;-139.34;100.00;63888.56;10552518;28;19923;-62
2022/04/09 19:58:34;;;;;;;;;;;;;;;-139.34;100.00;63888.56;10547471;28;19919;-63
2022/04/09 20:03:56;;;;;;;;;;;;;;;-139.34;100.00;63888.56;10549230;27;19947;-63
2022/04/09 20:09:18;;;;;;;;;;;;;;;-139.34;100.00;63888.56;10558376;28;20487;-63
2022/04/09 20:14:40;;;;;;;;;;;;;;;-139.34;100.00;63888.56;10542254;28;20284;-63
2022/04/09 20:20:03;;;;;;;;;;;;;;;-139.34;100.00;63888.56;10552709;28;19950;-63
2022/04/09 20:25:25;;;;;;;;;;;;;;;-139.34;100.00;63888.56;10544109;28;19920;-63
2022/04/09 20:30:46;;;;;;;;;;;;;;;-139.34;100.00;63888.56;10553531;28;19928;-63
2022/04/09 20:36:08;;;;;;;;;;;;;;;-139.34;100.00;63888.56;10552551;28;19927;-63
2022/04/09 20:41:32;;;;;;;;;;;;;;;-139.34;100.00;63888.56;10549585;28;19920;-63
2022/04/09 20:46:54;;;;;;;;;;;;;;;-139.34;100.00;63888.56;10556726;28;19949;-62
2022/04/09 20:52:16;;;;;;;;;;;;;;;-139.34;100.00;63888.56;10544701;28;20349;-63
2022/04/09 20:57:39;;;;;;;;;;;;;;;-139.34;100.00;63888.56;10550853;27;19923;-62
2022/04/09 21:03:01;;;;;;;;;;;;;;;-139.34;100.00;63888.56;10560274;27;19920;-64
2022/04/09 21:08:22;;;;;;;;;;;;;;;-139.34;100.00;63888.56;10567537;28;19920;-64
2022/04/09 21:13:44;;;;;;;;;;;;;;;-139.34;100.00;63888.56;10556543;28;20268;-64
2022/04/09 21:19:06;;;;;;;;;;;;;;;-139.34;100.00;63888.56;10569965;28;19924;-64
2022/04/09 21:24:29;;;;;;;;;;;;;;;-139.34;100.00;63888.56;10552443;28;19920;-65
2022/04/09 21:29:50;;;;;;;;;;;;;;;-139.34;100.00;63888.56;10565930;28;19923;-65
2022/04/09 21:35:12;;;;;;;;;;;;;;;-139.34;100.00;63888.56;10565428;28;20031;-65
2022/04/09 21:40:34;;;;;;;;;;;;;;;-139.34;100.00;63888.56;10567508;28;19923;-64
2022/04/09 21:45:55;;;;;;;;;;;;;;;-139.34;100.00;63888.56;10584493;27;19924;-64
2022/04/09 21:51:17;;;;;;;;;;;;;;;-139.34;100.00;63888.56;10583350;27;19924;-65
2022/04/09 21:56:38;;;;;;;;;;;;;;;-139.34;100.00;63888.56;10565171;28;19920;-65
2022/04/09 22:02:01;;;;;;;;;;;;;;;-139.34;100.00;63888.56;10562760;28;19920;-64
2022/04/09 22:07:22;;;;;;;;;;;;;;;-139.34;100.00;63888.56;10571481;28;20368;-64
2022/04/09 22:12:44;;;;;;;;;;;;;;;-139.34;100.00;63888.56;10536694;28;19928;-65
2022/04/09 22:18:25;;;;;;;;;;;;;;;-139.34;100.00;63888.56;10565144;28;19920;-65
2022/04/09 22:23:47;;;;;;;;;;;;;;;-139.34;100.00;63888.56;10541576;28;19938;-64
2022/04/09 22:29:08;;;;;;;;;;;;;;;-139.34;100.00;63888.56;10564347;28;19930;-64
2022/04/09 22:34:30;;;;;;;;;;;;;;;-139.34;100.00;63888.56;10555486;28;19920;-65
2022/04/09 22:39:51;;;;;;;;;;;;;;;-139.34;100.00;63888.56;10564440;28;19923;-64
2022/04/09 22:45:13;;;;;;;;;;;;;;;-139.34;100.00;63888.56;10549064;28;20287;-64
2022/04/09 22:50:35;;;;;;;;;;;;;;;-139.34;100.00;63888.56;10548660;28;19920;-66
2022/04/09 22:55:56;;;;;;;;;;;;;;;-139.34;100.00;63888.56;10562613;28;19919;-64
2022/04/09 23:01:18;;;;;;;;;;;;;;;-139.34;100.00;63888.56;10557239;28;19954;-64
2022/04/09 23:06:45;;;;;;;;;;;;;;;-139.34;100.00;63888.56;10557051;28;19926;-64
2022/04/09 23:12:07;;;;;;;;;;;;;;;-139.34;100.00;63888.56;10552768;28;19924;-64
2022/04/09 23:17:28;;;;;;;;;;;;;;;-139.34;100.00;63888.56;10562573;28;19919;-64
2022/04/09 23:22:50;;;;;;;;;;;;;;;-139.34;100.00;63888.56;10549104;28;19920;-64
2022/04/09 23:28:11;;;;;;;;;;;;;;;-139.34;100.00;63888.56;10558585;28;19924;-64
2022/04/09 23:33:33;;;;;;;;;;;;;;;-139.34;100.00;63888.56;10545715;28;20264;-64
2022/04/09 23:38:55;;;;;;;;;;;;;;;-139.34;100.00;63888.56;10562227;28;19924;-64
2022/04/09 23:44:17;;;;;;;;;;;;;;;-139.34;100.00;63888.56;10549607;28;19920;-65
2022/04/09 23:49:39;;;;;;;;;;;;;;;-139.34;100.00;63888.56;10546697;28;19920;-65
2022/04/09 23:55:01;;;;;;;;;;;;;;;-139.34;100.00;63888.56;10553183;28;19923;-64
